Time;durP1;ratioP1;P1;durP2;ratioP2;P2;SDS_P1;SDS_P2;PMS_P1;PMS_P2;Temp;Humidity;BMP_temperature;BMP_pressure;BME280_temperature;BME280_humidity;BME280_pressure;Samples;Min_cycle;Max_cycle;Signal;HPM_P1;HPM_P2
2022/03/09 00:01:47;;;;;;;13.75;8.13;;;6.70;95.00;;;;;;5034108;28;20240;-77
2022/03/09 00:04:12;;;;;;;13.30;8.85;;;6.70;94.30;;;;;;5051683;28;20167;-77
2022/03/09 00:06:38;;;;;;;12.52;7.88;;;6.70;94.30;;;;;;5051723;28;20174;-78
2022/03/09 00:09:04;;;;;;;9.63;7.55;;;6.60;94.20;;;;;;5052100;28;20186;-78
2022/03/09 00:11:30;;;;;;;11.45;7.75;;;6.60;93.90;;;;;;5051712;28;20162;-77
2022/03/09 00:13:59;;;;;;;17.17;7.32;;;6.50;94.20;;;;;;5051953;28;20177;-77
2022/03/09 00:16:24;;;;;;;10.55;8.05;;;6.40;94.00;;;;;;5052257;28;20218;-77
2022/03/09 00:18:50;;;;;;;12.68;8.20;;;6.50;94.10;;;;;;5033796;28;20167;-78
2022/03/09 00:21:15;;;;;;;19.73;8.60;;;6.40;93.90;;;;;;5051682;28;20166;-77
2022/03/09 00:23:41;;;;;;;10.43;7.68;;;6.50;94.20;;;;;;5051426;28;20164;-76
2022/03/09 00:26:07;;;;;;;9.77;7.57;;;6.50;94.00;;;;;;5051550;28;20191;-77
2022/03/09 00:28:33;;;;;;;10.98;8.23;;;6.50;93.90;;;;;;5054539;28;20234;-77
2022/03/09 00:30:59;;;;;;;9.88;7.88;;;6.50;94.10;;;;;;5055374;28;20171;-76
2022/03/09 00:33:24;;;;;;;14.40;7.10;;;6.30;94.40;;;;;;5055086;28;20198;-77
2022/03/09 00:35:50;;;;;;;12.73;8.38;;;6.20;94.50;;;;;;5055406;28;20302;-77
2022/03/09 00:38:15;;;;;;;14.00;6.82;;;6.20;94.90;;;;;;5055783;28;20661;-76
2022/03/09 00:40:41;;;;;;;9.70;7.72;;;6.10;94.90;;;;;;5055527;28;20221;-77
2022/03/09 00:43:06;;;;;;;11.48;7.82;;;6.20;94.80;;;;;;5055344;28;20232;-77
2022/03/09 00:45:32;;;;;;;8.48;7.03;;;6.40;94.70;;;;;;5055445;28;20190;-77
2022/03/09 00:47:58;;;;;;;18.48;7.88;;;6.50;94.40;;;;;;5055150;28;20598;-77
2022/03/09 00:50:23;;;;;;;14.10;7.30;;;6.30;94.40;;;;;;5055072;28;20174;-76
2022/03/09 00:52:49;;;;;;;13.10;8.30;;;6.30;94.50;;;;;;5037291;28;20640;-77
2022/03/09 00:55:14;;;;;;;13.73;8.90;;;6.30;94.60;;;;;;5055039;28;20195;-77
2022/03/09 00:57:40;;;;;;;13.18;8.32;;;6.30;94.60;;;;;;5055067;28;20672;-77
2022/03/09 01:00:07;;;;;;;10.88;8.43;;;6.30;94.50;;;;;;5037174;28;20163;-77
2022/03/09 01:02:32;;;;;;;20.58;7.95;;;6.40;94.50;;;;;;5054451;28;20159;-77
2022/03/09 01:04:58;;;;;;;11.57;8.40;;;6.50;94.80;;;;;;5054899;28;20240;-77
2022/03/09 01:07:23;;;;;;;11.95;7.63;;;6.40;94.70;;;;;;5055007;28;20202;-78
2022/03/09 01:09:49;;;;;;;11.68;8.15;;;6.40;94.50;;;;;;5036804;28;20179;-76
2022/03/09 01:12:14;;;;;;;11.95;7.65;;;6.50;94.40;;;;;;5054650;28;20170;-76
2022/03/09 01:14:40;;;;;;;9.57;7.78;;;6.60;94.40;;;;;;5054495;28;20168;-76
2022/03/09 01:17:06;;;;;;;9.18;7.13;;;6.50;94.70;;;;;;5054503;28;20709;-76
2022/03/09 01:19:31;;;;;;;11.50;7.88;;;6.50;94.70;;;;;;5054589;28;20250;-77
2022/03/09 01:21:57;;;;;;;10.43;7.30;;;6.40;94.50;;;;;;5037014;28;20646;-77
2022/03/09 01:24:22;;;;;;;15.70;7.47;;;6.50;94.50;;;;;;5054362;28;20179;-85
2022/03/09 01:26:48;;;;;;;12.82;8.68;;;6.60;94.40;;;;;;5054686;28;20193;-79
2022/03/09 01:29:14;;;;;;;14.30;8.90;;;6.70;94.80;;;;;;5054470;28;20194;-78
2022/03/09 01:31:42;;;;;;;12.70;8.55;;;6.70;95.00;;;;;;5054256;28;20627;-76
2022/03/09 01:34:08;;;;;;;9.35;7.70;;;6.70;94.90;;;;;;5036386;28;20232;-77
2022/03/09 01:36:34;;;;;;;11.23;8.57;;;6.50;95.40;;;;;;5054093;28;20215;-77
2022/03/09 01:38:59;;;;;;;11.57;8.25;;;6.50;95.60;;;;;;5036108;28;20171;-77
2022/03/09 01:41:25;;;;;;;11.52;7.65;;;6.60;95.50;;;;;;5054231;28;20225;-77
2022/03/09 01:44:12;;;;;;;23.85;7.63;;;6.40;95.40;;;;;;5054113;28;20179;-77
2022/03/09 01:46:40;;;;;;;11.63;7.85;;;6.40;95.40;;;;;;5053930;28;20683;-77
2022/03/09 01:49:08;;;;;;;17.08;8.30;;;6.30;95.90;;;;;;5053974;28;20170;-76
2022/03/09 01:51:36;;;;;;;12.02;7.78;;;6.20;96.20;;;;;;5054238;28;20636;-77
2022/03/09 01:54:04;;;;;;;11.13;6.90;;;6.30;95.90;;;;;;5054224;28;20660;-76
2022/03/09 01:56:29;;;;;;;10.20;7.63;;;6.30;95.80;;;;;;5053881;28;20217;-77
2022/03/09 01:58:55;;;;;;;12.45;7.85;;;6.30;96.10;;;;;;5054009;28;20155;-77
2022/03/09 02:01:22;;;;;;;13.07;8.43;;;6.40;95.90;;;;;;5053792;28;20679;-77
2022/03/09 02:03:47;;;;;;;9.60;8.05;;;6.40;95.50;;;;;;5035705;28;20250;-81
2022/03/09 02:06:13;;;;;;;11.48;7.38;;;6.30;96.40;;;;;;5036123;28;20338;-81
2022/03/09 02:11:25;;;;;;;10.63;7.97;;;6.40;96.10;;;;;;5053933;28;20232;-77
2022/03/09 02:13:50;;;;;;;10.27;8.05;;;6.50;96.10;;;;;;5053282;28;20326;-79
2022/03/09 02:16:16;;;;;;;17.42;8.63;;;6.40;96.40;;;;;;5053171;28;20731;-77
2022/03/09 02:18:42;;;;;;;12.32;8.70;;;6.20;96.60;;;;;;5053472;28;20167;-77
2022/03/09 02:21:11;;;;;;;16.45;8.75;;;6.20;96.50;;;;;;5035380;28;20628;-76
2022/03/09 02:23:36;;;;;;;9.98;7.25;;;6.30;96.00;;;;;;5053226;28;20174;-76
2022/03/09 02:26:02;;;;;;;11.55;7.72;;;6.20;96.20;;;;;;5053200;28;20183;-76
2022/03/09 02:28:28;;;;;;;10.52;7.22;;;6.20;96.10;;;;;;5053136;28;20167;-77
2022/03/09 02:30:57;;;;;;;8.50;6.70;;;6.10;96.20;;;;;;5035342;28;20648;-76
2022/03/09 02:33:23;;;;;;;9.82;6.88;;;6.10;96.10;;;;;;5052782;28;20175;-76
2022/03/09 02:35:51;;;;;;;9.90;7.25;;;6.10;96.10;;;;;;5052605;28;20203;-76
2022/03/09 02:38:17;;;;;;;9.45;7.38;;;6.10;96.00;;;;;;5053060;28;20175;-76
2022/03/09 02:40:43;;;;;;;10.52;7.50;;;6.10;96.00;;;;;;5053202;28;20174;-76
2022/03/09 02:43:08;;;;;;;11.40;7.57;;;6.10;96.30;;;;;;5053161;28;20190;-79
2022/03/09 02:45:34;;;;;;;10.52;7.03;;;6.10;96.40;;;;;;5035186;28;20601;-76
2022/03/09 02:47:59;;;;;;;9.95;8.05;;;6.20;96.20;;;;;;5052893;28;20171;-77
2022/03/09 02:50:25;;;;;;;10.82;7.88;;;6.10;96.80;;;;;;5052007;28;20667;-77
2022/03/09 02:52:51;;;;;;;10.18;7.68;;;6.10;97.10;;;;;;5052763;28;20167;-76
2022/03/09 02:55:16;;;;;;;14.55;7.82;;;6.20;97.10;;;;;;5052621;28;20232;-76
2022/03/09 02:57:43;;;;;;;12.13;8.05;;;6.20;96.90;;;;;;5052538;28;20960;-77
2022/03/09 03:00:09;;;;;;;9.85;7.25;;;6.20;97.00;;;;;;5052570;28;20174;-76
2022/03/09 03:02:36;;;;;;;13.63;8.52;;;6.20;96.70;;;;;;5053004;28;20167;-76
2022/03/09 03:05:01;;;;;;;10.90;7.82;;;6.20;97.10;;;;;;5052932;28;20183;-76
2022/03/09 03:07:27;;;;;;;12.98;7.95;;;6.20;97.30;;;;;;5052887;28;20167;-76
2022/03/09 03:09:53;;;;;;;12.52;8.55;;;6.20;97.40;;;;;;5053032;28;20167;-76
2022/03/09 03:12:18;;;;;;;12.63;7.88;;;6.20;97.50;;;;;;5052662;28;20566;-76
2022/03/09 03:14:44;;;;;;;9.82;7.97;;;6.10;97.60;;;;;;5052410;28;20170;-76
2022/03/09 03:17:09;;;;;;;14.90;8.02;;;6.10;97.50;;;;;;5052102;28;20207;-76
2022/03/09 03:19:35;;;;;;;12.25;7.70;;;6.20;97.20;;;;;;5052194;28;20452;-77
2022/03/09 03:22:00;;;;;;;11.05;7.50;;;6.10;97.40;;;;;;5052437;28;20213;-80
2022/03/09 03:24:28;;;;;;;12.85;8.85;;;6.10;97.40;;;;;;5052051;28;20159;-76
2022/03/09 03:26:53;;;;;;;10.80;7.50;;;6.00;97.60;;;;;;5052242;28;20187;-76
2022/03/09 03:29:19;;;;;;;10.13;7.63;;;6.00;97.80;;;;;;5052189;28;20631;-76
2022/03/09 03:31:45;;;;;;;11.90;8.50;;;5.90;98.10;;;;;;5052083;28;20171;-77
2022/03/09 03:34:10;;;;;;;12.63;8.23;;;5.80;98.10;;;;;;5051885;28;20639;-76
2022/03/09 03:36:36;;;;;;;9.13;7.28;;;5.90;97.90;;;;;;5051807;28;20264;-77
2022/03/09 03:39:02;;;;;;;15.40;8.05;;;5.90;97.60;;;;;;5052024;28;20249;-78
2022/03/09 03:41:27;;;;;;;11.50;7.60;;;5.90;97.60;;;;;;5052320;28;20171;-76
2022/03/09 03:43:53;;;;;;;9.40;7.75;;;5.90;97.90;;;;;;5052006;28;20182;-76
2022/03/09 03:46:19;;;;;;;16.73;7.32;;;5.70;98.20;;;;;;5051996;28;20187;-76
2022/03/09 03:48:44;;;;;;;11.25;7.35;;;5.80;98.20;;;;;;5051874;28;20508;-76
2022/03/09 03:51:10;;;;;;;10.45;7.38;;;5.90;98.20;;;;;;5052393;28;20253;-76
2022/03/09 03:53:37;;;;;;;11.73;8.65;;;5.80;98.60;;;;;;5061321;28;20159;-75
2022/03/09 03:56:02;;;;;;;9.38;7.60;;;5.60;99.10;;;;;;5059222;28;20242;-77
2022/03/09 03:58:28;;;;;;;15.57;8.60;;;5.60;99.40;;;;;;5058139;28;20172;-77
2022/03/09 04:00:54;;;;;;;13.02;8.20;;;5.60;99.40;;;;;;5057554;28;20191;-76
2022/03/09 04:03:19;;;;;;;14.55;8.20;;;5.60;99.60;;;;;;5042058;28;20225;-76
2022/03/09 04:05:45;;;;;;;17.88;9.88;;;5.50;99.90;;;;;;5058060;28;20243;-76
2022/03/09 04:08:10;;;;;;;10.40;8.02;;;5.50;99.60;;;;;;5060557;28;20560;-76
2022/03/09 04:10:36;;;;;;;11.48;7.90;;;5.50;99.80;;;;;;5062251;28;20169;-76
2022/03/09 04:13:04;;;;;;;12.00;7.68;;;5.50;99.60;;;;;;5058922;28;20167;-77
2022/03/09 04:15:33;;;;;;;13.32;7.35;;;5.60;99.10;;;;;;5060665;28;20194;-77
2022/03/09 04:17:59;;;;;;;11.05;7.15;;;5.60;98.80;;;;;;5042426;28;20245;-78
2022/03/09 04:20:25;;;;;;;25.60;7.97;;;5.70;98.40;;;;;;5059688;28;20163;-77
2022/03/09 04:22:52;;;;;;;10.43;7.43;;;5.60;98.30;;;;;;5040613;28;20232;-78
2022/03/09 04:25:17;;;;;;;11.10;7.72;;;5.60;98.70;;;;;;5060088;28;20191;-76
2022/03/09 04:27:43;;;;;;;18.17;8.45;;;5.60;98.60;;;;;;5059080;28;20183;-76
2022/03/09 04:30:10;;;;;;;10.95;7.43;;;5.60;99.10;;;;;;5041217;28;20687;-76
2022/03/09 04:32:36;;;;;;;13.15;7.82;;;5.60;99.50;;;;;;5061200;28;20527;-77
2022/03/09 04:35:06;;;;;;;9.75;8.10;;;5.50;99.90;;;;;;5061720;28;20560;-77
2022/03/09 04:37:33;;;;;;;17.10;8.70;;;5.30;99.90;;;;;;5059569;28;20728;-78
2022/03/09 04:40:01;;;;;;;10.10;6.90;;;5.00;99.90;;;;;;5060212;28;20197;-76
2022/03/09 04:42:28;;;;;;;13.27;7.68;;;5.10;99.90;;;;;;5058595;28;20289;-76
2022/03/09 04:44:54;;;;;;;15.40;8.73;;;5.30;99.90;;;;;;5058587;28;20191;-77
2022/03/09 04:47:20;;;;;;;12.85;9.20;;;5.40;99.90;;;;;;5057991;28;20194;-76
2022/03/09 04:49:46;;;;;;;13.27;8.50;;;5.50;99.90;;;;;;5058771;28;20167;-77
2022/03/09 04:52:12;;;;;;;11.35;8.52;;;5.40;99.90;;;;;;5058915;28;20194;-77
2022/03/09 04:54:37;;;;;;;13.48;8.35;;;5.40;99.90;;;;;;5040855;28;20167;-78
2022/03/09 04:57:03;;;;;;;12.07;8.13;;;5.30;99.90;;;;;;5057652;28;20202;-76
2022/03/09 04:59:29;;;;;;;11.30;7.75;;;5.30;99.90;;;;;;5058777;28;20176;-77
2022/03/09 05:01:55;;;;;;;11.20;8.70;;;5.20;99.90;;;;;;5056931;28;20171;-77
2022/03/09 05:04:21;;;;;;;9.32;7.57;;;5.20;99.90;;;;;;5057997;28;20174;-76
2022/03/09 05:06:46;;;;;;;14.75;8.60;;;5.30;99.90;;;;;;5058658;28;20187;-77
2022/03/09 05:09:12;;;;;;;11.82;8.00;;;5.30;99.90;;;;;;5039088;28;20204;-77
2022/03/09 05:11:37;;;;;;;18.40;7.60;;;5.20;99.90;;;;;;5057165;28;20178;-89
2022/03/09 05:14:03;;;;;;;13.57;8.00;;;5.20;99.90;;;;;;5056556;28;20162;-76
2022/03/09 05:16:29;;;;;;;14.52;9.07;;;5.10;99.90;;;;;;5057178;28;20538;-76
2022/03/09 05:18:54;;;;;;;12.68;7.82;;;4.80;99.90;;;;;;5056807;28;20547;-77
2022/03/09 05:21:20;;;;;;;13.25;8.23;;;4.80;99.90;;;;;;5054225;28;20174;-77
2022/03/09 05:23:45;;;;;;;12.27;8.02;;;4.80;99.90;;;;;;5054862;28;20164;-77
2022/03/09 05:26:11;;;;;;;12.40;8.82;;;5.00;99.90;;;;;;5054347;28;20190;-76
2022/03/09 05:28:37;;;;;;;11.93;8.00;;;5.00;99.90;;;;;;5054038;28;20167;-77
2022/03/09 05:31:03;;;;;;;10.68;7.63;;;5.10;99.90;;;;;;5054097;28;20209;-76
2022/03/09 05:33:28;;;;;;;19.13;7.78;;;5.00;99.90;;;;;;5054569;28;20178;-76
2022/03/09 05:35:54;;;;;;;16.88;8.23;;;5.00;99.90;;;;;;5054342;28;20198;-76
2022/03/09 05:38:19;;;;;;;14.32;8.40;;;5.00;99.90;;;;;;5054637;28;20171;-76
2022/03/09 05:40:45;;;;;;;26.52;9.68;;;5.10;99.90;;;;;;5054431;28;20160;-76
2022/03/09 05:43:11;;;;;;;15.10;7.75;;;5.10;99.90;;;;;;5053859;28;20187;-76
2022/03/09 05:45:36;;;;;;;17.80;8.73;;;5.00;99.90;;;;;;5053886;28;20544;-76
2022/03/09 05:48:02;;;;;;;20.83;8.38;;;5.10;99.90;;;;;;5053650;28;20260;-77
2022/03/09 05:50:28;;;;;;;11.77;7.63;;;5.00;99.90;;;;;;5053529;28;20241;-76
2022/03/09 05:52:53;;;;;;;12.80;8.27;;;4.90;99.90;;;;;;5054082;28;20167;-76
2022/03/09 05:55:19;;;;;;;12.30;7.75;;;4.90;99.90;;;;;;5053672;28;20195;-76
2022/03/09 05:57:45;;;;;;;10.63;7.80;;;5.10;99.90;;;;;;5053709;28;20206;-77
2022/03/09 06:00:11;;;;;;;12.20;7.85;;;5.20;99.90;;;;;;5053780;28;20163;-76
2022/03/09 06:02:36;;;;;;;15.55;7.53;;;5.10;99.90;;;;;;5053449;28;20520;-76
2022/03/09 06:05:02;;;;;;;23.20;9.00;;;5.10;99.90;;;;;;5053102;28;20187;-77
2022/03/09 06:07:27;;;;;;;17.15;7.90;;;5.30;99.90;;;;;;5053771;28;20246;-76
2022/03/09 06:09:53;;;;;;;16.90;7.47;;;5.20;99.90;;;;;;5053519;28;20221;-77
2022/03/09 06:12:18;;;;;;;12.25;7.78;;;5.20;99.90;;;;;;5053489;28;20170;-76
2022/03/09 06:14:44;;;;;;;17.83;8.43;;;5.20;99.90;;;;;;5035581;28;20262;-77
2022/03/09 06:17:10;;;;;;;15.40;9.05;;;5.10;99.90;;;;;;5053812;28;20218;-76
2022/03/09 06:19:35;;;;;;;14.30;8.45;;;5.30;99.90;;;;;;5035205;28;20668;-76
2022/03/09 06:22:01;;;;;;;27.85;8.73;;;5.30;99.90;;;;;;5052976;28;20179;-76
2022/03/09 06:24:27;;;;;;;16.90;8.20;;;5.20;99.90;;;;;;5052689;28;20624;-77
2022/03/09 06:26:53;;;;;;;21.40;8.68;;;5.30;99.90;;;;;;5052966;28;20538;-77
2022/03/09 06:29:20;;;;;;;17.92;8.80;;;5.30;99.90;;;;;;5053011;28;20163;-77
2022/03/09 06:31:46;;;;;;;14.07;7.38;;;5.30;99.90;;;;;;5034992;28;20194;-77
2022/03/09 06:34:13;;;;;;;16.48;8.77;;;5.30;99.90;;;;;;5052531;28;20624;-77
2022/03/09 06:36:43;;;;;;;15.82;8.13;;;5.30;99.90;;;;;;5052786;28;20206;-77
2022/03/09 06:39:09;;;;;;;11.20;8.02;;;5.30;99.90;;;;;;5034975;28;20663;-77
2022/03/09 06:41:35;;;;;;;22.75;9.25;;;5.30;99.90;;;;;;5052642;28;20228;-77
2022/03/09 06:44:00;;;;;;;29.10;8.00;;;5.40;99.90;;;;;;5052453;28;20186;-77
2022/03/09 06:46:26;;;;;;;13.95;8.07;;;5.40;99.90;;;;;;5052191;28;20187;-76
2022/03/09 06:48:52;;;;;;;11.93;8.48;;;5.40;99.90;;;;;;5052445;28;20266;-75
2022/03/09 06:51:17;;;;;;;15.75;8.25;;;5.50;99.90;;;;;;5052617;28;20163;-76
2022/03/09 06:53:44;;;;;;;15.32;8.13;;;5.60;99.90;;;;;;5053055;28;20171;-75
2022/03/09 06:56:10;;;;;;;17.17;9.07;;;5.70;99.90;;;;;;5052653;28;20211;-77
2022/03/09 06:58:35;;;;;;;14.68;8.95;;;5.80;99.90;;;;;;5052608;28;20173;-76
2022/03/09 07:01:01;;;;;;;14.60;8.90;;;5.80;99.90;;;;;;5052330;28;20251;-76
2022/03/09 07:03:28;;;;;;;16.17;9.75;;;5.80;99.90;;;;;;5052282;28;20168;-76
2022/03/09 07:05:54;;;;;;;17.80;9.55;;;5.80;99.90;;;;;;5051934;28;20182;-75
2022/03/09 07:08:19;;;;;;;16.58;9.23;;;5.70;99.90;;;;;;5051864;28;20159;-77
2022/03/09 07:10:46;;;;;;;14.25;8.55;;;5.80;99.90;;;;;;5052148;28;20178;-76
2022/03/09 07:13:12;;;;;;;22.05;9.30;;;5.80;99.90;;;;;;5051757;28;20163;-76
2022/03/09 07:15:37;;;;;;;20.45;9.23;;;5.80;99.90;;;;;;5051772;28;20186;-76
2022/03/09 07:18:03;;;;;;;15.45;10.25;;;6.00;99.90;;;;;;5051902;28;20528;-76
2022/03/09 07:20:29;;;;;;;21.63;9.07;;;6.20;99.70;;;;;;5051659;28;20171;-75
2022/03/09 07:22:55;;;;;;;21.83;9.40;;;6.40;99.50;;;;;;5051923;28;20221;-77
2022/03/09 07:25:21;;;;;;;18.85;9.50;;;6.40;99.60;;;;;;5052111;28;20183;-76
2022/03/09 07:27:46;;;;;;;17.55;9.07;;;6.50;99.40;;;;;;5051765;28;20174;-76
2022/03/09 07:30:13;;;;;;;17.25;10.60;;;6.40;99.60;;;;;;5051954;28;20225;-79
2022/03/09 07:32:39;;;;;;;15.70;10.15;;;6.50;99.60;;;;;;5051157;28;20627;-76
2022/03/09 07:35:05;;;;;;;20.02;10.80;;;6.50;99.60;;;;;;5051320;28;20198;-77
2022/03/09 07:37:31;;;;;;;19.60;10.13;;;6.60;99.40;;;;;;5050868;28;20210;-76
2022/03/09 07:39:56;;;;;;;20.02;10.95;;;6.80;99.00;;;;;;5051093;28;20163;-77
2022/03/09 07:42:22;;;;;;;20.20;10.38;;;6.90;99.10;;;;;;5051512;28;20171;-77
2022/03/09 07:44:47;;;;;;;14.60;9.38;;;7.00;98.90;;;;;;5051414;28;20182;-77
2022/03/09 07:47:13;;;;;;;23.35;11.15;;;7.10;99.00;;;;;;5033732;28;20175;-80
2022/03/09 07:49:39;;;;;;;20.70;10.57;;;7.10;99.20;;;;;;5051819;28;20163;-78
2022/03/09 07:52:06;;;;;;;18.13;10.77;;;7.10;99.10;;;;;;5051926;28;20304;-78
2022/03/09 07:54:31;;;;;;;17.50;10.70;;;7.00;99.10;;;;;;5051341;28;20178;-78
2022/03/09 07:56:57;;;;;;;22.50;11.32;;;7.00;99.30;;;;;;5054206;28;20207;-77
2022/03/09 07:59:26;;;;;;;23.17;11.10;;;7.20;99.00;;;;;;5051141;28;20167;-79
2022/03/09 08:01:53;;;;;;;22.52;10.98;;;7.30;99.00;;;;;;5032716;28;20181;-81
2022/03/09 08:04:20;;;;;;;19.45;10.98;;;7.40;98.70;;;;;;5052056;28;20490;-81
2022/03/09 08:06:48;;;;;;;22.80;11.80;;;7.60;98.50;;;;;;5052264;28;20270;-81
2022/03/09 08:09:20;;;;;;;26.70;11.50;;;7.70;98.40;;;;;;5051832;28;20266;-80
2022/03/09 08:11:46;;;;;;;22.85;11.63;;;7.80;98.30;;;;;;5051821;28;20181;-80
2022/03/09 08:14:14;;;;;;;29.50;12.15;;;7.80;98.20;;;;;;5051603;28;20246;-78
2022/03/09 08:16:39;;;;;;;25.48;11.77;;;7.70;98.20;;;;;;5051582;28;20210;-79
2022/03/09 08:19:05;;;;;;;38.83;12.02;;;7.70;98.50;;;;;;5034077;28;20553;-79
2022/03/09 08:21:31;;;;;;;26.13;12.18;;;7.90;98.40;;;;;;5051712;28;20167;-80
2022/03/09 08:23:57;;;;;;;32.33;12.10;;;7.90;98.40;;;;;;5051703;28;20163;-80
2022/03/09 08:26:23;;;;;;;36.78;12.23;;;8.10;98.40;;;;;;5051478;28;20187;-80
2022/03/09 08:28:49;;;;;;;31.58;14.65;;;8.10;98.30;;;;;;5051946;28;20514;-79
2022/03/09 08:31:15;;;;;;;22.70;12.07;;;8.20;98.30;;;;;;5051960;28;20178;-79
2022/03/09 08:33:42;;;;;;;26.10;13.45;;;8.40;98.00;;;;;;5051362;28;20495;-79
2022/03/09 08:36:08;;;;;;;29.60;13.18;;;8.30;98.20;;;;;;5051362;28;20207;-80
2022/03/09 08:38:33;;;;;;;22.20;11.73;;;8.60;98.10;;;;;;5033632;28;20640;-80
2022/03/09 08:40:59;;;;;;;60.67;15.98;;;8.50;98.20;;;;;;5051404;28;20171;-81
2022/03/09 08:43:25;;;;;;;29.55;13.27;;;8.60;98.20;;;;;;5051222;28;20175;-79
2022/03/09 08:45:51;;;;;;;23.58;12.90;;;8.70;98.20;;;;;;5033512;28;20237;-79
2022/03/09 08:48:16;;;;;;;34.30;15.02;;;8.80;97.70;;;;;;5050636;28;20179;-81
2022/03/09 08:50:42;;;;;;;34.83;14.27;;;8.90;97.80;;;;;;5035705;28;20261;-80
2022/03/09 08:53:08;;;;;;;29.48;14.32;;;8.80;97.80;;;;;;5037432;28;20642;-81
2022/03/09 08:55:35;;;;;;;30.52;13.18;;;8.90;98.00;;;;;;5037263;28;20301;-80
2022/03/09 08:58:01;;;;;;;34.38;14.10;;;9.00;98.00;;;;;;5054426;28;20207;-79
2022/03/09 09:00:26;;;;;;;46.40;16.02;;;9.20;97.70;;;;;;5036460;28;20171;-80
2022/03/09 09:02:52;;;;;;;28.55;14.27;;;9.30;97.70;;;;;;5054345;28;20643;-81
2022/03/09 09:05:18;;;;;;;27.48;13.32;;;9.50;97.40;;;;;;5054011;28;20274;-80
2022/03/09 09:07:44;;;;;;;24.70;13.88;;;9.50;97.40;;;;;;5054138;28;20168;-81
2022/03/09 09:10:10;;;;;;;28.67;13.68;;;9.50;97.40;;;;;;5054255;28;20261;-80
2022/03/09 09:12:35;;;;;;;26.35;14.00;;;9.70;97.30;;;;;;5054061;28;20174;-87
2022/03/09 09:15:01;;;;;;;37.10;15.20;;;9.70;97.40;;;;;;5036008;28;20187;-81
2022/03/09 09:17:27;;;;;;;31.40;15.23;;;9.70;97.30;;;;;;5053858;28;20285;-82
2022/03/09 09:19:52;;;;;;;29.42;14.15;;;9.90;97.40;;;;;;5053668;28;20522;-81
2022/03/09 09:22:18;;;;;;;30.10;13.60;;;10.00;97.10;;;;;;5054299;28;20171;-83
2022/03/09 09:24:44;;;;;;;42.35;14.95;;;10.00;97.30;;;;;;5053702;28;20178;-80
2022/03/09 09:27:09;;;;;;;42.17;16.00;;;10.00;97.10;;;;;;5036054;28;20683;-83
2022/03/09 09:29:35;;;;;;;30.98;15.15;;;10.20;97.60;;;;;;5053827;28;20262;-82
2022/03/09 09:32:01;;;;;;;32.25;14.50;;;10.30;96.90;;;;;;5035067;28;20224;-83
2022/03/09 09:34:27;;;;;;;27.70;14.27;;;10.50;96.90;;;;;;5054097;28;20186;-82
2022/03/09 09:36:53;;;;;;;41.05;17.38;;;10.60;96.70;;;;;;5053854;28;20211;-80
2022/03/09 09:39:20;;;;;;;29.38;15.48;;;10.60;96.70;;;;;;5035568;28;20175;-81
2022/03/09 09:41:48;;;;;;;34.53;15.32;;;10.80;96.80;;;;;;5034868;28;20266;-81
2022/03/09 09:44:15;;;;;;;43.60;16.85;;;10.80;97.10;;;;;;5035205;28;20224;-83
2022/03/09 09:46:43;;;;;;;33.17;15.65;;;11.00;97.00;;;;;;5052455;28;20248;-79
2022/03/09 09:49:12;;;;;;;28.40;15.52;;;11.10;96.70;;;;;;5053978;28;20195;-83
2022/03/09 09:51:39;;;;;;;38.58;19.20;;;11.20;96.70;;;;;;5053715;28;20160;-79
2022/03/09 09:54:05;;;;;;;39.33;15.57;;;11.30;96.60;;;;;;5053606;28;20698;-80
2022/03/09 09:56:36;;;;;;;37.35;15.90;;;11.40;96.20;;;;;;5033858;28;20209;-79
2022/03/09 09:59:05;;;;;;;31.30;15.02;;;11.60;96.10;;;;;;5053180;28;20167;-79
2022/03/09 10:01:31;;;;;;;33.95;16.45;;;11.70;95.70;;;;;;5053665;28;20171;-82
2022/03/09 10:03:56;;;;;;;43.10;18.05;;;11.70;95.40;;;;;;5035939;28;20167;-82
2022/03/09 10:06:22;;;;;;;34.75;17.15;;;11.60;96.00;;;;;;5034083;28;20199;-85
2022/03/09 10:09:06;;;;;;;30.80;15.20;;;11.70;96.00;;;;;;5034917;28;20159;-80
2022/03/09 10:11:53;;;;;;;34.53;17.42;;;11.90;95.80;;;;;;5033328;28;20548;-80
2022/03/09 10:14:46;;;;;;;34.97;16.00;;;11.90;96.00;;;;;;5033227;28;20191;-78
2022/03/09 10:17:16;;;;;;;32.33;14.98;;;12.10;95.20;;;;;;5033253;28;20289;-80
2022/03/09 10:19:50;;;;;;;40.53;16.67;;;12.10;95.40;;;;;;5033688;28;20168;-80
2022/03/09 10:22:33;;;;;;;33.97;17.20;;;12.20;95.10;;;;;;5033518;28;20176;-80
2022/03/09 10:25:20;;;;;;;38.13;16.45;;;12.40;95.10;;;;;;5033397;28;20184;-81
2022/03/09 10:27:47;;;;;;;31.35;15.68;;;12.40;94.90;;;;;;5015850;28;20191;-79
2022/03/09 10:30:17;;;;;;;35.83;15.63;;;12.50;94.80;;;;;;5033386;28;20219;-81
2022/03/09 10:32:43;;;;;;;41.35;17.27;;;12.60;94.80;;;;;;5015450;28;20186;-79
2022/03/09 10:35:11;;;;;;;38.88;16.38;;;12.50;94.90;;;;;;5032884;28;20589;-81
2022/03/09 10:37:38;;;;;;;39.78;17.35;;;12.70;94.50;;;;;;5033050;28;20670;-81
2022/03/09 10:40:17;;;;;;;31.83;16.70;;;12.70;94.60;;;;;;5033450;28;20168;-82
2022/03/09 10:42:43;;;;;;;34.83;17.00;;;12.70;94.80;;;;;;5031554;28;20187;-82
2022/03/09 10:45:10;;;;;;;31.35;15.80;;;12.70;94.90;;;;;;5033257;28;20191;-83
2022/03/09 10:47:42;;;;;;;46.97;16.80;;;12.60;94.90;;;;;;5032592;28;20565;-82
2022/03/09 10:50:19;;;;;;;31.70;17.08;;;12.60;95.10;;;;;;5014623;28;20168;-82
2022/03/09 10:52:52;;;;;;;33.90;17.52;;;12.70;94.60;;;;;;5032197;28;20166;-82
2022/03/09 10:55:28;;;;;;;36.63;16.50;;;12.90;94.30;;;;;;5032790;28;20649;-82
2022/03/09 10:58:08;;;;;;;35.53;16.55;;;12.90;94.70;;;;;;5014649;28;20234;-82
2022/03/09 11:00:41;;;;;;;41.15;17.00;;;12.90;94.60;;;;;;5032227;28;20171;-82
2022/03/09 11:03:09;;;;;;;34.97;17.45;;;13.00;94.70;;;;;;5014758;28;20547;-82
2022/03/09 11:05:36;;;;;;;39.40;15.50;;;13.00;94.20;;;;;;5014805;28;20213;-82
2022/03/09 11:08:03;;;;;;;45.58;17.90;;;13.10;94.40;;;;;;5031944;28;20249;-82
2022/03/09 11:10:29;;;;;;;50.00;18.95;;;13.00;94.60;;;;;;5013905;28;20246;-82
2022/03/09 11:12:55;;;;;;;40.15;18.15;;;13.10;94.60;;;;;;5014136;28;20167;-82
2022/03/09 11:15:21;;;;;;;31.63;16.08;;;13.20;94.80;;;;;;5031951;28;20257;-83
2022/03/09 11:17:48;;;;;;;50.95;17.05;;;13.20;94.30;;;;;;5014108;28;20204;-82
2022/03/09 11:20:18;;;;;;;34.10;16.48;;;13.40;94.40;;;;;;5031925;28;20255;-82
2022/03/09 11:22:43;;;;;;;34.50;17.98;;;13.40;94.40;;;;;;5031616;28;20254;-82
2022/03/09 11:25:10;;;;;;;43.22;15.55;;;13.50;94.30;;;;;;5014090;28;20556;-82
2022/03/09 11:27:47;;;;;;;31.35;17.17;;;13.60;94.10;;;;;;5013999;28;20178;-83
2022/03/09 11:30:21;;;;;;;33.50;17.88;;;13.70;94.40;;;;;;5031845;28;20164;-83
2022/03/09 11:32:47;;;;;;;45.85;18.75;;;13.70;94.40;;;;;;5013872;28;20226;-81
2022/03/09 11:35:36;;;;;;;35.05;17.45;;;13.70;94.20;;;;;;5014301;28;20272;-82
2022/03/09 11:38:23;;;;;;;40.60;18.17;;;13.70;94.00;;;;;;5013828;28;20207;-82
2022/03/09 11:41:14;;;;;;;47.35;25.83;;;13.70;94.30;;;;;;5030944;28;20644;-80
2022/03/09 11:43:40;;;;;;;46.72;22.17;;;13.60;94.20;;;;;;5013890;28;20548;-81
2022/03/09 11:46:05;;;;;;;50.05;18.80;;;13.80;93.90;;;;;;5031906;28;20184;-82
2022/03/09 11:48:50;;;;;;;35.00;17.38;;;13.70;94.30;;;;;;5031572;28;20485;-82
2022/03/09 11:51:17;;;;;;;40.75;19.00;;;13.70;94.00;;;;;;5013730;28;20175;-82
2022/03/09 11:53:49;;;;;;;35.35;18.05;;;13.80;94.00;;;;;;5032026;28;20239;-85
2022/03/09 11:56:27;;;;;;;50.88;18.80;;;14.00;93.90;;;;;;5014026;28;20291;-82
2022/03/09 11:59:08;;;;;;;37.70;17.02;;;14.10;93.60;;;;;;5013939;28;20646;-82
2022/03/09 12:01:57;;;;;;;49.45;18.00;;;14.00;93.80;;;;;;5031757;28;20247;-83
2022/03/09 12:04:48;;;;;;;45.47;17.90;;;14.00;94.20;;;;;;5014355;28;20171;-82
2022/03/09 12:07:34;;;;;;;46.50;18.63;;;14.10;93.90;;;;;;5031532;28;20254;-82
2022/03/09 12:10:08;;;;;;;37.15;17.08;;;14.20;93.90;;;;;;5014210;28;20263;-82
2022/03/09 12:12:36;;;;;;;35.00;17.13;;;14.20;93.70;;;;;;5013790;28;20164;-84
2022/03/09 12:15:14;;;;;;;34.58;16.65;;;14.20;93.70;;;;;;5031681;28;20184;-82
2022/03/09 12:17:44;;;;;;;37.95;16.65;;;14.30;93.50;;;;;;5032071;28;20213;-82
2022/03/09 12:20:21;;;;;;;37.45;17.08;;;14.30;93.80;;;;;;5013954;28;20164;-81
2022/03/09 12:23:01;;;;;;;34.83;17.13;;;14.40;93.80;;;;;;5033564;28;20167;-83
2022/03/09 12:25:47;;;;;;;37.38;18.02;;;14.50;93.70;;;;;;5017720;28;20206;-81
2022/03/09 12:28:22;;;;;;;40.38;18.52;;;14.70;93.60;;;;;;5034308;28;20164;-82
2022/03/09 12:30:48;;;;;;;36.28;17.05;;;14.70;93.60;;;;;;5017647;28;20172;-82
2022/03/09 12:33:28;;;;;;;34.88;17.45;;;14.70;94.00;;;;;;5016998;28;20179;-85
2022/03/09 12:36:12;;;;;;;37.58;17.83;;;14.80;93.80;;;;;;5035496;28;20242;-83
2022/03/09 12:38:50;;;;;;;46.80;19.45;;;14.70;93.80;;;;;;5017382;28;20222;-81
2022/03/09 12:41:32;;;;;;;43.78;17.50;;;14.70;94.00;;;;;;5035051;28;20254;-79
2022/03/09 12:43:59;;;;;;;36.83;17.75;;;14.60;93.80;;;;;;5035136;28;20259;-82
2022/03/09 12:46:26;;;;;;;37.63;17.88;;;14.70;94.00;;;;;;5035083;28;20192;-83